sensor_id;sensor_type;location;lat;lon;timestamp;temperature;humidity
60234;DHT22;49514;43.538;-5.708;2023-10-13T00:00:27;23.30;99.90
60234;DHT22;49514;43.538;-5.708;2023-10-13T00:02:57;23.20;99.90
60234;DHT22;49514;43.538;-5.708;2023-10-13T00:05:45;23.20;99.90
60234;DHT22;49514;43.538;-5.708;2023-10-13T00:08:30;23.10;99.90
60234;DHT22;49514;43.538;-5.708;2023-10-13T00:11:15;23.10;99.90
60234;DHT22;49514;43.538;-5.708;2023-10-13T00:13:42;23.00;99.90
60234;DHT22;49514;43.538;-5.708;2023-10-13T00:16:10;22.90;99.90
60234;DHT22;49514;43.538;-5.708;2023-10-13T00:18:43;23.00;99.90
60234;DHT22;49514;43.538;-5.708;2023-10-13T00:21:11;22.90;99.90
60234;DHT22;49514;43.538;-5.708;2023-10-13T00:23:41;23.00;99.90
60234;DHT22;49514;43.538;-5.708;2023-10-13T00:26:23;22.90;99.90
60234;DHT22;49514;43.538;-5.708;2023-10-13T00:29:10;22.90;99.90
60234;DHT22;49514;43.538;-5.708;2023-10-13T00:31:40;22.90;99.90
60234;DHT22;49514;43.538;-5.708;2023-10-13T00:34:10;22.80;99.90
60234;DHT22;49514;43.538;-5.708;2023-10-13T00:36:53;22.80;99.90
60234;DHT22;49514;43.538;-5.708;2023-10-13T00:39:39;22.90;99.90
60234;DHT22;49514;43.538;-5.708;2023-10-13T00:42:15;22.80;99.90
60234;DHT22;49514;43.538;-5.708;2023-10-13T00:44:46;22.80;99.90
60234;DHT22;49514;43.538;-5.708;2023-10-13T00:47:17;22.80;99.90
60234;DHT22;49514;43.538;-5.708;2023-10-13T00:50:05;22.70;99.90
60234;DHT22;49514;43.538;-5.708;2023-10-13T00:52:34;22.70;99.90
60234;DHT22;49514;43.538;-5.708;2023-10-13T00:55:02;22.70;99.90
60234;DHT22;49514;43.538;-5.708;2023-10-13T00:57:30;22.60;99.90
60234;DHT22;49514;43.538;-5.708;2023-10-13T00:59:57;22.50;99.90
60234;DHT22;49514;43.538;-5.708;2023-10-13T01:02:24;22.50;99.90
60234;DHT22;49514;43.538;-5.708;2023-10-13T01:05:06;22.50;99.90
60234;DHT22;49514;43.538;-5.708;2023-10-13T01:07:36;22.50;99.90
60234;DHT22;49514;43.538;-5.708;2023-10-13T01:10:10;22.50;99.90
60234;DHT22;49514;43.538;-5.708;2023-10-13T01:12:41;22.40;99.90
60234;DHT22;49514;43.538;-5.708;2023-10-13T01:15:12;22.40;99.90
60234;DHT22;49514;43.538;-5.708;2023-10-13T01:17:44;22.40;99.90
60234;DHT22;49514;43.538;-5.708;2023-10-13T01:20:12;22.40;99.90
60234;DHT22;49514;43.538;-5.708;2023-10-13T01:22:46;22.40;99.90
60234;DHT22;49514;43.538;-5.708;2023-10-13T01:25:23;22.40;99.90
60234;DHT22;49514;43.538;-5.708;2023-10-13T01:27:54;22.40;99.90
60234;DHT22;49514;43.538;-5.708;2023-10-13T01:30:20;22.40;99.90
60234;DHT22;49514;43.538;-5.708;2023-10-13T01:32:53;22.40;99.90
60234;DHT22;49514;43.538;-5.708;2023-10-13T01:35:26;22.30;99.90
60234;DHT22;49514;43.538;-5.708;2023-10-13T01:38:01;22.30;99.90
60234;DHT22;49514;43.538;-5.708;2023-10-13T01:40:28;22.40;99.90
60234;DHT22;49514;43.538;-5.708;2023-10-13T01:42:59;22.20;99.90
60234;DHT22;49514;43.538;-5.708;2023-10-13T01:45:26;22.30;99.90
60234;DHT22;49514;43.538;-5.708;2023-10-13T01:47:55;22.20;99.90
60234;DHT22;49514;43.538;-5.708;2023-10-13T01:50:23;22.20;99.90
60234;DHT22;49514;43.538;-5.708;2023-10-13T01:52:56;22.20;99.90
60234;DHT22;49514;43.538;-5.708;2023-10-13T01:55:41;22.20;99.90
60234;DHT22;49514;43.538;-5.708;2023-10-13T01:58:12;22.10;99.90
60234;DHT22;49514;43.538;-5.708;2023-10-13T02:00:43;22.10;99.90
60234;DHT22;49514;43.538;-5.708;2023-10-13T02:03:10;22.10;99.90
60234;DHT22;49514;43.538;-5.708;2023-10-13T02:05:48;22.10;99.90
60234;DHT22;49514;43.538;-5.708;2023-10-13T02:08:20;22.00;99.90
60234;DHT22;49514;43.538;-5.708;2023-10-13T02:10:56;22.00;99.90
60234;DHT22;49514;43.538;-5.708;2023-10-13T02:13:24;22.00;99.90
60234;DHT22;49514;43.538;-5.708;2023-10-13T02:15:56;22.00;99.90
60234;DHT22;49514;43.538;-5.708;2023-10-13T02:18:24;22.00;99.90
60234;DHT22;49514;43.538;-5.708;2023-10-13T02:21:02;22.10;99.90
60234;DHT22;49514;43.538;-5.708;2023-10-13T02:23:39;22.10;99.90
60234;DHT22;49514;43.538;-5.708;2023-10-13T02:26:26;22.00;99.90
60234;DHT22;49514;43.538;-5.708;2023-10-13T02:29:05;22.00;99.90
60234;DHT22;49514;43.538;-5.708;2023-10-13T02:31:37;22.10;99.90
60234;DHT22;49514;43.538;-5.708;2023-10-13T02:34:05;22.00;99.90
60234;DHT22;49514;43.538;-5.708;2023-10-13T02:36:36;21.90;99.90
60234;DHT22;49514;43.538;-5.708;2023-10-13T02:39:04;21.80;99.90
60234;DHT22;49514;43.538;-5.708;2023-10-13T02:41:34;21.70;99.90
60234;DHT22;49514;43.538;-5.708;2023-10-13T02:44:05;21.80;99.90
60234;DHT22;49514;43.538;-5.708;2023-10-13T02:46:36;21.70;99.90
60234;DHT22;49514;43.538;-5.708;2023-10-13T02:49:06;21.70;99.90
60234;DHT22;49514;43.538;-5.708;2023-10-13T02:51:37;21.70;99.90
60234;DHT22;49514;43.538;-5.708;2023-10-13T02:54:10;21.60;99.90
60234;DHT22;49514;43.538;-5.708;2023-10-13T02:56:38;21.60;99.90
60234;DHT22;49514;43.538;-5.708;2023-10-13T02:59:24;21.60;99.90
60234;DHT22;49514;43.538;-5.708;2023-10-13T03:02:01;21.60;99.90
60234;DHT22;49514;43.538;-5.708;2023-10-13T03:05:04;21.60;99.90
60234;DHT22;49514;43.538;-5.708;2023-10-13T03:07:41;21.50;99.90
60234;DHT22;49514;43.538;-5.708;2023-10-13T03:10:10;21.50;99.90
60234;DHT22;49514;43.538;-5.708;2023-10-13T03:12:40;21.50;99.90
60234;DHT22;49514;43.538;-5.708;2023-10-13T03:15:07;21.50;99.90
60234;DHT22;49514;43.538;-5.708;2023-10-13T03:17:56;21.50;99.90
60234;DHT22;49514;43.538;-5.708;2023-10-13T03:20:26;21.50;99.90
60234;DHT22;49514;43.538;-5.708;2023-10-13T03:22:58;21.40;99.90
60234;DHT22;49514;43.538;-5.708;2023-10-13T03:25:26;21.40;99.90
60234;DHT22;49514;43.538;-5.708;2023-10-13T03:27:58;21.40;99.90
60234;DHT22;49514;43.538;-5.708;2023-10-13T03:30:25;21.40;99.90
60234;DHT22;49514;43.538;-5.708;2023-10-13T03:33:05;21.30;99.90
60234;DHT22;49514;43.538;-5.708;2023-10-13T03:35:39;21.30;99.90
60234;DHT22;49514;43.538;-5.708;2023-10-13T03:38:10;21.30;99.90
60234;DHT22;49514;43.538;-5.708;2023-10-13T03:40:47;21.30;99.90
60234;DHT22;49514;43.538;-5.708;2023-10-13T03:43:23;21.40;99.90
60234;DHT22;49514;43.538;-5.708;2023-10-13T03:45:51;21.40;99.90
60234;DHT22;49514;43.538;-5.708;2023-10-13T03:48:34;21.40;99.90
60234;DHT22;49514;43.538;-5.708;2023-10-13T03:51:18;21.50;99.90
60234;DHT22;49514;43.538;-5.708;2023-10-13T03:53:44;21.50;99.90
60234;DHT22;49514;43.538;-5.708;2023-10-13T03:56:25;21.50;99.90
60234;DHT22;49514;43.538;-5.708;2023-10-13T03:58:54;21.50;99.90
60234;DHT22;49514;43.538;-5.708;2023-10-13T04:01:24;21.50;99.90
60234;DHT22;49514;43.538;-5.708;2023-10-13T04:04:01;21.50;99.90
60234;DHT22;49514;43.538;-5.708;2023-10-13T04:06:31;21.50;99.90
60234;DHT22;49514;43.538;-5.708;2023-10-13T04:09:17;21.60;99.90
60234;DHT22;49514;43.538;-5.708;2023-10-13T04:12:03;21.60;99.90
60234;DHT22;49514;43.538;-5.708;2023-10-13T04:14:35;21.50;99.90
60234;DHT22;49514;43.538;-5.708;2023-10-13T04:17:21;21.50;99.90
60234;DHT22;49514;43.538;-5.708;2023-10-13T04:19:56;21.50;99.90
60234;DHT22;49514;43.538;-5.708;2023-10-13T04:22:36;21.50;99.90
60234;DHT22;49514;43.538;-5.708;2023-10-13T04:25:29;21.50;99.90
60234;DHT22;49514;43.538;-5.708;2023-10-13T04:28:18;21.50;99.90
60234;DHT22;49514;43.538;-5.708;2023-10-13T04:31:01;21.50;99.90
60234;DHT22;49514;43.538;-5.708;2023-10-13T04:33:50;21.50;99.90
60234;DHT22;49514;43.538;-5.708;2023-10-13T04:36:27;21.50;99.90
60234;DHT22;49514;43.538;-5.708;2023-10-13T04:38:58;21.50;99.90
60234;DHT22;49514;43.538;-5.708;2023-10-13T04:41:32;21.50;99.90
60234;DHT22;49514;43.538;-5.708;2023-10-13T04:44:11;21.50;99.90
60234;DHT22;49514;43.538;-5.708;2023-10-13T04:46:57;21.50;99.90
60234;DHT22;49514;43.538;-5.708;2023-10-13T04:49:30;21.50;99.90
60234;DHT22;49514;43.538;-5.708;2023-10-13T04:52:09;21.50;99.90
60234;DHT22;49514;43.538;-5.708;2023-10-13T04:54:39;21.50;99.90
60234;DHT22;49514;43.538;-5.708;2023-10-13T04:57:13;21.50;99.90
60234;DHT22;49514;43.538;-5.708;2023-10-13T04:59:49;21.50;99.90
60234;DHT22;49514;43.538;-5.708;2023-10-13T05:02:35;21.50;99.90
60234;DHT22;49514;43.538;-5.708;2023-10-13T05:05:15;21.60;99.90
60234;DHT22;49514;43.538;-5.708;2023-10-13T05:07:45;21.50;99.90
60234;DHT22;49514;43.538;-5.708;2023-10-13T05:10:32;21.50;99.90
60234;DHT22;49514;43.538;-5.708;2023-10-13T05:13:17;21.50;99.90
60234;DHT22;49514;43.538;-5.708;2023-10-13T05:16:02;21.50;99.90
60234;DHT22;49514;43.538;-5.708;2023-10-13T05:18:47;21.50;99.90
60234;DHT22;49514;43.538;-5.708;2023-10-13T05:21:32;21.50;99.90
60234;DHT22;49514;43.538;-5.708;2023-10-13T05:24:19;21.50;99.90
60234;DHT22;49514;43.538;-5.708;2023-10-13T05:27:04;21.50;99.90
60234;DHT22;49514;43.538;-5.708;2023-10-13T05:30:08;21.50;99.90
60234;DHT22;49514;43.538;-5.708;2023-10-13T05:33:11;21.50;99.90
60234;DHT22;49514;43.538;-5.708;2023-10-13T05:35:56;21.50;99.90
60234;DHT22;49514;43.538;-5.708;2023-10-13T05:38:42;21.50;99.90
60234;DHT22;49514;43.538;-5.708;2023-10-13T05:41:27;21.40;99.90
60234;DHT22;49514;43.538;-5.708;2023-10-13T05:44:12;21.40;99.90
60234;DHT22;49514;43.538;-5.708;2023-10-13T05:46:57;21.40;99.90
60234;DHT22;49514;43.538;-5.708;2023-10-13T05:49:42;21.40;99.90
60234;DHT22;49514;43.538;-5.708;2023-10-13T05:52:19;21.40;99.90
60234;DHT22;49514;43.538;-5.708;2023-10-13T05:55:06;21.40;99.90
60234;DHT22;49514;43.538;-5.708;2023-10-13T05:57:51;21.40;99.90
60234;DHT22;49514;43.538;-5.708;2023-10-13T06:00:41;21.40;99.90
60234;DHT22;49514;43.538;-5.708;2023-10-13T06:03:26;21.40;99.90
60234;DHT22;49514;43.538;-5.708;2023-10-13T06:06:11;21.40;99.90
60234;DHT22;49514;43.538;-5.708;2023-10-13T06:08:56;21.30;99.90
60234;DHT22;49514;43.538;-5.708;2023-10-13T06:11:41;21.40;99.90
60234;DHT22;49514;43.538;-5.708;2023-10-13T06:14:26;21.30;99.90
60234;DHT22;49514;43.538;-5.708;2023-10-13T06:17:12;21.30;99.90
60234;DHT22;49514;43.538;-5.708;2023-10-13T06:19:57;21.30;99.90
60234;DHT22;49514;43.538;-5.708;2023-10-13T06:22:42;21.30;99.90
60234;DHT22;49514;43.538;-5.708;2023-10-13T06:25:27;21.30;99.90
60234;DHT22;49514;43.538;-5.708;2023-10-13T06:28:12;21.20;99.90
60234;DHT22;49514;43.538;-5.708;2023-10-13T06:30:58;21.20;99.90
60234;DHT22;49514;43.538;-5.708;2023-10-13T06:33:27;21.30;99.90
60234;DHT22;49514;43.538;-5.708;2023-10-13T06:36:01;21.30;99.90
60234;DHT22;49514;43.538;-5.708;2023-10-13T06:38:29;21.30;99.90
60234;DHT22;49514;43.538;-5.708;2023-10-13T06:41:03;21.20;99.90
60234;DHT22;49514;43.538;-5.708;2023-10-13T06:43:34;21.30;99.90
60234;DHT22;49514;43.538;-5.708;2023-10-13T06:46:07;21.30;99.90
60234;DHT22;49514;43.538;-5.708;2023-10-13T06:48:41;21.30;99.90
60234;DHT22;49514;43.538;-5.708;2023-10-13T06:51:09;21.30;99.90
60234;DHT22;49514;43.538;-5.708;2023-10-13T06:53:45;21.30;99.90
60234;DHT22;49514;43.538;-5.708;2023-10-13T06:56:15;21.30;99.90
60234;DHT22;49514;43.538;-5.708;2023-10-13T06:58:49;21.40;99.90
60234;DHT22;49514;43.538;-5.708;2023-10-13T07:01:15;21.30;99.90
60234;DHT22;49514;43.538;-5.708;2023-10-13T07:03:48;21.30;99.90
60234;DHT22;49514;43.538;-5.708;2023-10-13T07:06:21;21.40;99.90
60234;DHT22;49514;43.538;-5.708;2023-10-13T07:08:48;21.40;99.90
60234;DHT22;49514;43.538;-5.708;2023-10-13T07:11:25;21.40;99.90
60234;DHT22;49514;43.538;-5.708;2023-10-13T07:14:04;21.40;99.90
60234;DHT22;49514;43.538;-5.708;2023-10-13T07:16:56;21.40;99.90
60234;DHT22;49514;43.538;-5.708;2023-10-13T07:19:27;21.40;99.90
60234;DHT22;49514;43.538;-5.708;2023-10-13T07:22:01;21.40;99.90
60234;DHT22;49514;43.538;-5.708;2023-10-13T07:24:50;21.50;99.90
60234;DHT22;49514;43.538;-5.708;2023-10-13T07:27:20;21.50;99.90
60234;DHT22;49514;43.538;-5.708;2023-10-13T07:29:55;21.50;99.90
60234;DHT22;49514;43.538;-5.708;2023-10-13T07:32:41;21.50;99.90
60234;DHT22;49514;43.538;-5.708;2023-10-13T07:35:17;21.50;99.90
60234;DHT22;49514;43.538;-5.708;2023-10-13T07:37:46;21.50;99.90
60234;DHT22;49514;43.538;-5.708;2023-10-13T07:40:18;21.50;99.90
60234;DHT22;49514;43.538;-5.708;2023-10-13T07:42:51;21.60;99.90
60234;DHT22;49514;43.538;-5.708;2023-10-13T07:45:18;21.50;99.90
60234;DHT22;49514;43.538;-5.708;2023-10-13T07:47:48;21.50;99.90
60234;DHT22;49514;43.538;-5.708;2023-10-13T07:50:16;21.60;99.90
60234;DHT22;49514;43.538;-5.708;2023-10-13T07:52:51;21.60;99.90
60234;DHT22;49514;43.538;-5.708;2023-10-13T07:55:41;21.60;99.90
60234;DHT22;49514;43.538;-5.708;2023-10-13T07:58:07;21.60;99.90
60234;DHT22;49514;43.538;-5.708;2023-10-13T08:00:34;21.60;99.90
60234;DHT22;49514;43.538;-5.708;2023-10-13T08:03:09;21.60;99.90
60234;DHT22;49514;43.538;-5.708;2023-10-13T08:05:56;21.70;99.90
60234;DHT22;49514;43.538;-5.708;2023-10-13T08:08:33;21.70;99.90
60234;DHT22;49514;43.538;-5.708;2023-10-13T08:11:13;21.70;99.90
60234;DHT22;49514;43.538;-5.708;2023-10-13T08:16:20;21.70;99.90
60234;DHT22;49514;43.538;-5.708;2023-10-13T08:18:52;21.80;99.90
60234;DHT22;49514;43.538;-5.708;2023-10-13T08:21:19;21.70;99.90
60234;DHT22;49514;43.538;-5.708;2023-10-13T08:23:58;21.80;99.90
60234;DHT22;49514;43.538;-5.708;2023-10-13T08:26:27;21.80;99.90
60234;DHT22;49514;43.538;-5.708;2023-10-13T08:29:13;21.80;99.90
60234;DHT22;49514;43.538;-5.708;2023-10-13T08:32:00;21.80;99.90
60234;DHT22;49514;43.538;-5.708;2023-10-13T08:34:34;21.90;99.90
60234;DHT22;49514;43.538;-5.708;2023-10-13T08:37:13;21.90;99.90
60234;DHT22;49514;43.538;-5.708;2023-10-13T08:39:50;21.90;99.90
60234;DHT22;49514;43.538;-5.708;2023-10-13T08:42:37;21.90;99.90
60234;DHT22;49514;43.538;-5.708;2023-10-13T08:45:13;21.90;99.90
60234;DHT22;49514;43.538;-5.708;2023-10-13T08:47:50;21.90;99.90
60234;DHT22;49514;43.538;-5.708;2023-10-13T08:50:50;21.90;99.90
60234;DHT22;49514;43.538;-5.708;2023-10-13T08:58:49;21.90;99.90
60234;DHT22;49514;43.538;-5.708;2023-10-13T09:01:24;21.90;99.90
60234;DHT22;49514;43.538;-5.708;2023-10-13T09:04:10;21.80;99.90
60234;DHT22;49514;43.538;-5.708;2023-10-13T09:07:05;21.80;99.90
60234;DHT22;49514;43.538;-5.708;2023-10-13T09:12:10;21.70;99.90
60234;DHT22;49514;43.538;-5.708;2023-10-13T09:14:38;21.70;99.90
60234;DHT22;49514;43.538;-5.708;2023-10-13T09:17:10;21.80;99.90
60234;DHT22;49514;43.538;-5.708;2023-10-13T09:22:57;21.80;99.90
60234;DHT22;49514;43.538;-5.708;2023-10-13T09:25:31;21.80;99.90
60234;DHT22;49514;43.538;-5.708;2023-10-13T09:28:13;21.80;99.90
60234;DHT22;49514;43.538;-5.708;2023-10-13T09:30:50;21.80;99.90
60234;DHT22;49514;43.538;-5.708;2023-10-13T09:33:37;21.90;99.90
60234;DHT22;49514;43.538;-5.708;2023-10-13T09:36:07;21.90;99.90
60234;DHT22;49514;43.538;-5.708;2023-10-13T09:38:35;21.90;99.90
60234;DHT22;49514;43.538;-5.708;2023-10-13T09:41:07;21.90;99.90
60234;DHT22;49514;43.538;-5.708;2023-10-13T09:43:53;21.90;99.90
60234;DHT22;49514;43.538;-5.708;2023-10-13T09:46:26;21.80;99.90
60234;DHT22;49514;43.538;-5.708;2023-10-13T09:48:58;21.80;99.90
60234;DHT22;49514;43.538;-5.708;2023-10-13T09:51:34;21.80;99.90
60234;DHT22;49514;43.538;-5.708;2023-10-13T09:56:42;21.70;99.90
60234;DHT22;49514;43.538;-5.708;2023-10-13T09:59:31;21.80;99.90
60234;DHT22;49514;43.538;-5.708;2023-10-13T10:02:05;21.70;99.90
60234;DHT22;49514;43.538;-5.708;2023-10-13T10:04:38;21.70;99.90
60234;DHT22;49514;43.538;-5.708;2023-10-13T10:07:25;21.80;99.90
60234;DHT22;49514;43.538;-5.708;2023-10-13T10:09:59;21.80;99.90
60234;DHT22;49514;43.538;-5.708;2023-10-13T10:13:01;21.90;99.90
60234;DHT22;49514;43.538;-5.708;2023-10-13T10:15:35;22.00;99.90
60234;DHT22;49514;43.538;-5.708;2023-10-13T10:18:20;22.00;99.90
60234;DHT22;49514;43.538;-5.708;2023-10-13T10:20:49;22.00;99.90
60234;DHT22;49514;43.538;-5.708;2023-10-13T10:23:26;22.00;99.90
60234;DHT22;49514;43.538;-5.708;2023-10-13T10:25:56;22.00;99.90
60234;DHT22;49514;43.538;-5.708;2023-10-13T10:28:39;22.00;99.90
60234;DHT22;49514;43.538;-5.708;2023-10-13T10:31:11;22.00;99.90
60234;DHT22;49514;43.538;-5.708;2023-10-13T10:33:46;22.10;99.90
60234;DHT22;49514;43.538;-5.708;2023-10-13T10:36:28;22.10;99.90
60234;DHT22;49514;43.538;-5.708;2023-10-13T10:38:57;22.20;99.90
60234;DHT22;49514;43.538;-5.708;2023-10-13T10:41:31;22.20;99.90
60234;DHT22;49514;43.538;-5.708;2023-10-13T10:44:13;22.30;99.90
60234;DHT22;49514;43.538;-5.708;2023-10-13T10:46:43;22.40;99.90
60234;DHT22;49514;43.538;-5.708;2023-10-13T10:49:26;22.40;99.90
60234;DHT22;49514;43.538;-5.708;2023-10-13T10:51:58;22.40;99.90
60234;DHT22;49514;43.538;-5.708;2023-10-13T10:54:27;22.40;99.90
60234;DHT22;49514;43.538;-5.708;2023-10-13T10:57:00;22.50;99.90
60234;DHT22;49514;43.538;-5.708;2023-10-13T10:59:38;22.60;99.90
60234;DHT22;49514;43.538;-5.708;2023-10-13T11:02:06;22.70;99.90
60234;DHT22;49514;43.538;-5.708;2023-10-13T11:04:34;22.70;99.90
60234;DHT22;49514;43.538;-5.708;2023-10-13T11:07:07;22.70;99.90
60234;DHT22;49514;43.538;-5.708;2023-10-13T11:09:35;22.80;99.90
60234;DHT22;49514;43.538;-5.708;2023-10-13T11:12:15;22.90;99.90
60234;DHT22;49514;43.538;-5.708;2023-10-13T11:14:44;23.00;99.90
60234;DHT22;49514;43.538;-5.708;2023-10-13T11:17:22;23.00;99.90
60234;DHT22;49514;43.538;-5.708;2023-10-13T11:20:16;23.00;99.90
60234;DHT22;49514;43.538;-5.708;2023-10-13T11:22:49;23.10;99.90
60234;DHT22;49514;43.538;-5.708;2023-10-13T11:25:24;23.20;99.90
60234;DHT22;49514;43.538;-5.708;2023-10-13T11:27:56;23.20;99.90
60234;DHT22;49514;43.538;-5.708;2023-10-13T11:30:34;23.30;99.90
60234;DHT22;49514;43.538;-5.708;2023-10-13T11:33:06;23.20;99.90
60234;DHT22;49514;43.538;-5.708;2023-10-13T11:35:38;23.20;99.90
60234;DHT22;49514;43.538;-5.708;2023-10-13T11:38:33;23.10;99.90
60234;DHT22;49514;43.538;-5.708;2023-10-13T11:41:09;23.00;99.90
60234;DHT22;49514;43.538;-5.708;2023-10-13T11:43:41;22.90;99.90
60234;DHT22;49514;43.538;-5.708;2023-10-13T11:46:13;22.80;99.90
60234;DHT22;49514;43.538;-5.708;2023-10-13T11:48:43;22.80;99.90
60234;DHT22;49514;43.538;-5.708;2023-10-13T11:51:12;22.70;99.90
60234;DHT22;49514;43.538;-5.708;2023-10-13T11:53:52;22.60;99.90
60234;DHT22;49514;43.538;-5.708;2023-10-13T11:56:20;22.50;99.90
60234;DHT22;49514;43.538;-5.708;2023-10-13T11:58:48;22.40;99.90
60234;DHT22;49514;43.538;-5.708;2023-10-13T12:01:16;22.40;99.90
60234;DHT22;49514;43.538;-5.708;2023-10-13T12:03:50;22.40;99.90
60234;DHT22;49514;43.538;-5.708;2023-10-13T12:06:36;22.40;99.90
60234;DHT22;49514;43.538;-5.708;2023-10-13T12:09:07;22.40;99.90
60234;DHT22;49514;43.538;-5.708;2023-10-13T12:11:58;22.40;99.90
60234;DHT22;49514;43.538;-5.708;2023-10-13T12:14:27;22.40;99.90
60234;DHT22;49514;43.538;-5.708;2023-10-13T12:17:03;22.40;99.90
60234;DHT22;49514;43.538;-5.708;2023-10-13T12:19:31;22.50;99.90
60234;DHT22;49514;43.538;-5.708;2023-10-13T12:21:57;22.70;99.90
60234;DHT22;49514;43.538;-5.708;2023-10-13T12:24:30;22.90;99.90
60234;DHT22;49514;43.538;-5.708;2023-10-13T12:27:06;23.10;99.90
60234;DHT22;49514;43.538;-5.708;2023-10-13T12:29:46;23.30;99.90
60234;DHT22;49514;43.538;-5.708;2023-10-13T12:32:13;23.40;99.90
60234;DHT22;49514;43.538;-5.708;2023-10-13T12:34:40;23.60;99.90
60234;DHT22;49514;43.538;-5.708;2023-10-13T12:37:29;23.60;99.90
60234;DHT22;49514;43.538;-5.708;2023-10-13T12:40:08;23.60;99.90
60234;DHT22;49514;43.538;-5.708;2023-10-13T12:42:54;23.60;99.90
60234;DHT22;49514;43.538;-5.708;2023-10-13T12:45:39;23.50;99.90
60234;DHT22;49514;43.538;-5.708;2023-10-13T12:48:24;23.60;99.90
60234;DHT22;49514;43.538;-5.708;2023-10-13T12:51:09;23.70;99.90
60234;DHT22;49514;43.538;-5.708;2023-10-13T12:53:55;23.60;99.90
60234;DHT22;49514;43.538;-5.708;2023-10-13T12:56:30;23.60;99.90
60234;DHT22;49514;43.538;-5.708;2023-10-13T12:58:57;23.50;99.90
60234;DHT22;49514;43.538;-5.708;2023-10-13T13:01:24;23.50;99.90
60234;DHT22;49514;43.538;-5.708;2023-10-13T13:03:59;23.60;99.90
60234;DHT22;49514;43.538;-5.708;2023-10-13T13:06:26;23.80;99.90
60234;DHT22;49514;43.538;-5.708;2023-10-13T13:08:53;24.00;99.90
60234;DHT22;49514;43.538;-5.708;2023-10-13T13:11:20;24.40;99.90
60234;DHT22;49514;43.538;-5.708;2023-10-13T13:13:47;24.80;99.90
60234;DHT22;49514;43.538;-5.708;2023-10-13T13:16:14;25.20;99.90
60234;DHT22;49514;43.538;-5.708;2023-10-13T13:18:40;25.60;99.90
60234;DHT22;49514;43.538;-5.708;2023-10-13T13:21:09;25.90;99.90
60234;DHT22;49514;43.538;-5.708;2023-10-13T13:23:38;26.10;99.90
60234;DHT22;49514;43.538;-5.708;2023-10-13T13:26:06;26.00;99.90
60234;DHT22;49514;43.538;-5.708;2023-10-13T13:28:42;25.60;99.90
60234;DHT22;49514;43.538;-5.708;2023-10-13T13:31:09;25.20;99.90
60234;DHT22;49514;43.538;-5.708;2023-10-13T13:33:38;24.90;99.90
60234;DHT22;49514;43.538;-5.708;2023-10-13T13:36:08;24.50;99.90
60234;DHT22;49514;43.538;-5.708;2023-10-13T13:38:41;24.30;99.90
60234;DHT22;49514;43.538;-5.708;2023-10-13T13:41:17;24.10;99.90
60234;DHT22;49514;43.538;-5.708;2023-10-13T13:43:44;24.00;99.90
60234;DHT22;49514;43.538;-5.708;2023-10-13T13:46:31;24.00;99.90
60234;DHT22;49514;43.538;-5.708;2023-10-13T13:49:07;24.00;99.90
60234;DHT22;49514;43.538;-5.708;2023-10-13T13:51:44;24.20;99.90
60234;DHT22;49514;43.538;-5.708;2023-10-13T13:54:18;24.50;99.90
60234;DHT22;49514;43.538;-5.708;2023-10-13T13:56:45;25.10;99.90
60234;DHT22;49514;43.538;-5.708;2023-10-13T13:59:12;26.20;99.90
60234;DHT22;49514;43.538;-5.708;2023-10-13T14:01:42;28.90;99.90
60234;DHT22;49514;43.538;-5.708;2023-10-13T14:04:10;30.40;99.90
60234;DHT22;49514;43.538;-5.708;2023-10-13T14:06:37;30.60;99.90
60234;DHT22;49514;43.538;-5.708;2023-10-13T14:09:04;30.40;99.90
60234;DHT22;49514;43.538;-5.708;2023-10-13T14:11:59;30.30;99.90
60234;DHT22;49514;43.538;-5.708;2023-10-13T14:14:43;30.10;99.90
60234;DHT22;49514;43.538;-5.708;2023-10-13T14:17:25;29.90;99.90
60234;DHT22;49514;43.538;-5.708;2023-10-13T14:20:02;29.50;99.90
60234;DHT22;49514;43.538;-5.708;2023-10-13T14:22:36;29.50;99.90
60234;DHT22;49514;43.538;-5.708;2023-10-13T14:25:03;30.20;99.90
60234;DHT22;49514;43.538;-5.708;2023-10-13T14:27:35;32.30;99.90
60234;DHT22;49514;43.538;-5.708;2023-10-13T14:30:02;32.80;98.70
60234;DHT22;49514;43.538;-5.708;2023-10-13T14:32:29;33.10;98.50
60234;DHT22;49514;43.538;-5.708;2023-10-13T14:34:56;34.20;96.10
60234;DHT22;49514;43.538;-5.708;2023-10-13T14:37:23;34.00;93.70
60234;DHT22;49514;43.538;-5.708;2023-10-13T14:39:53;32.90;93.30
60234;DHT22;49514;43.538;-5.708;2023-10-13T14:42:26;31.70;94.20
60234;DHT22;49514;43.538;-5.708;2023-10-13T14:44:53;30.80;96.20
60234;DHT22;49514;43.538;-5.708;2023-10-13T14:47:23;29.90;97.50
60234;DHT22;49514;43.538;-5.708;2023-10-13T14:49:54;29.50;99.00
60234;DHT22;49514;43.538;-5.708;2023-10-13T14:52:21;29.00;99.10
60234;DHT22;49514;43.538;-5.708;2023-10-13T14:54:48;28.40;99.80
60234;DHT22;49514;43.538;-5.708;2023-10-13T14:57:21;28.50;99.90
60234;DHT22;49514;43.538;-5.708;2023-10-13T14:59:53;28.50;99.90
60234;DHT22;49514;43.538;-5.708;2023-10-13T15:02:20;28.40;99.90
60234;DHT22;49514;43.538;-5.708;2023-10-13T15:04:47;29.80;99.40
60234;DHT22;49514;43.538;-5.708;2023-10-13T15:07:17;31.30;95.90
60234;DHT22;49514;43.538;-5.708;2023-10-13T15:09:46;30.60;94.70
60234;DHT22;49514;43.538;-5.708;2023-10-13T15:12:12;29.80;97.00
60234;DHT22;49514;43.538;-5.708;2023-10-13T15:14:40;29.00;98.80
60234;DHT22;49514;43.538;-5.708;2023-10-13T15:17:10;28.30;99.40
60234;DHT22;49514;43.538;-5.708;2023-10-13T15:19:37;27.60;99.90
60234;DHT22;49514;43.538;-5.708;2023-10-13T15:22:06;27.00;99.90
60234;DHT22;49514;43.538;-5.708;2023-10-13T15:24:34;26.50;99.90
60234;DHT22;49514;43.538;-5.708;2023-10-13T15:27:11;26.10;99.90
60234;DHT22;49514;43.538;-5.708;2023-10-13T15:29:38;25.60;99.90
60234;DHT22;49514;43.538;-5.708;2023-10-13T15:32:04;25.30;99.90
60234;DHT22;49514;43.538;-5.708;2023-10-13T15:34:51;25.10;99.90
60234;DHT22;49514;43.538;-5.708;2023-10-13T15:37:18;24.70;99.90
60234;DHT22;49514;43.538;-5.708;2023-10-13T15:39:46;24.50;99.90
60234;DHT22;49514;43.538;-5.708;2023-10-13T15:42:12;24.40;99.90
60234;DHT22;49514;43.538;-5.708;2023-10-13T15:44:40;24.20;99.90
60234;DHT22;49514;43.538;-5.708;2023-10-13T15:47:09;24.00;99.90
60234;DHT22;49514;43.538;-5.708;2023-10-13T15:49:38;24.00;99.90
60234;DHT22;49514;43.538;-5.708;2023-10-13T15:52:08;23.80;99.90
60234;DHT22;49514;43.538;-5.708;2023-10-13T15:54:35;23.70;99.90
60234;DHT22;49514;43.538;-5.708;2023-10-13T15:57:02;23.60;99.90
60234;DHT22;49514;43.538;-5.708;2023-10-13T15:59:33;23.50;99.90
60234;DHT22;49514;43.538;-5.708;2023-10-13T16:02:00;23.40;99.90
60234;DHT22;49514;43.538;-5.708;2023-10-13T16:04:27;23.30;99.90
60234;DHT22;49514;43.538;-5.708;2023-10-13T16:06:55;23.20;99.90
60234;DHT22;49514;43.538;-5.708;2023-10-13T16:09:22;23.20;99.90
60234;DHT22;49514;43.538;-5.708;2023-10-13T16:11:54;23.10;99.90
60234;DHT22;49514;43.538;-5.708;2023-10-13T16:14:20;23.00;99.90
60234;DHT22;49514;43.538;-5.708;2023-10-13T16:16:49;22.90;99.90
60234;DHT22;49514;43.538;-5.708;2023-10-13T16:19:16;22.80;99.90